Time;durP1;ratioP1;P1;durP2;ratioP2;P2;SDS_P1;SDS_P2;PMS_P1;PMS_P2;Temp;Humidity;BMP_temperature;BMP_pressure;BME280_temperature;BME280_humidity;BME280_pressure;Samples;Min_cycle;Max_cycle;Signal;HPM_P1;HPM_P2
2022/12/17 13:06:45;;;;;;;11.43;6.97;;;-1.30;99.90;;;;;;474393;238;27490;-73
2022/12/17 13:08:46;;;;;;;9.82;6.10;;;-1.30;99.90;;;;;;470557;250;27546;-73
2022/12/17 13:10:47;;;;;;;10.93;7.20;;;-1.40;99.90;;;;;;470290;250;27801;-73
2022/12/17 13:12:49;;;;;;;14.85;8.38;;;-1.50;99.90;;;;;;469775;253;27505;-72
2022/12/17 13:14:50;;;;;;;12.70;7.40;;;-1.40;99.90;;;;;;470067;253;27972;-73
2022/12/17 13:16:51;;;;;;;13.20;7.25;;;-1.30;99.90;;;;;;468869;241;29197;-72
2022/12/17 13:18:52;;;;;;;12.70;7.10;;;-1.50;99.90;;;;;;478770;245;27369;-73
2022/12/17 13:20:54;;;;;;;11.73;7.12;;;-1.20;99.90;;;;;;481133;246;27400;-73
2022/12/17 13:22:55;;;;;;;12.45;7.20;;;-1.30;99.90;;;;;;480956;247;27785;-73
2022/12/17 13:24:56;;;;;;;12.57;7.03;;;-1.30;99.90;;;;;;473383;250;27963;-73
2022/12/17 13:26:57;;;;;;;11.25;6.60;;;-1.10;99.90;;;;;;482482;241;28030;-73
2022/12/17 13:28:59;;;;;;;9.93;6.68;;;-1.00;99.90;;;;;;476909;245;27504;-73
2022/12/17 13:31:00;;;;;;;9.38;6.28;;;-1.10;99.90;;;;;;471692;247;27532;-74
2022/12/17 13:33:04;;;;;;;9.85;5.93;;;-1.30;99.90;;;;;;480795;245;27491;-74
2022/12/17 13:35:05;;;;;;;7.62;5.90;;;-1.10;99.90;;;;;;481568;245;27916;-73
2022/12/17 13:37:07;;;;;;;11.32;6.72;;;-1.30;99.90;;;;;;479242;237;28972;-74
2022/12/17 13:39:08;;;;;;;10.00;5.32;;;-1.20;99.90;;;;;;476495;242;28141;-74
2022/12/17 13:41:09;;;;;;;5.32;4.78;;;-1.40;99.90;;;;;;479637;242;27660;-73
2022/12/17 13:43:10;;;;;;;6.50;5.60;;;-1.40;99.90;;;;;;478437;242;27618;-73
2022/12/17 13:47:12;;;;;;;7.40;5.07;;;-1.50;99.90;;;;;;481678;232;28955;-73
2022/12/17 13:49:13;;;;;;;6.62;4.97;;;-1.50;99.90;;;;;;480533;242;27560;-73
2022/12/17 13:51:14;;;;;;;8.32;5.45;;;-1.20;99.90;;;;;;480017;242;27415;-73
2022/12/17 13:53:16;;;;;;;7.35;5.32;;;-1.20;99.90;;;;;;480875;243;28005;-74
2022/12/17 13:57:24;;;;;;;7.82;5.95;;;-1.10;99.90;;;;;;473185;245;29057;-74
2022/12/17 13:59:25;;;;;;;5.95;4.80;;;-1.00;99.90;;;;;;475728;246;28043;-74
2022/12/17 14:01:26;;;;;;;5.00;4.43;;;-0.90;99.90;;;;;;476613;246;27409;-75
2022/12/17 14:03:28;;;;;;;6.72;5.03;;;-0.80;99.90;;;;;;477090;247;27423;-74
2022/12/17 14:05:29;;;;;;;6.50;5.00;;;-0.90;99.90;;;;;;479880;241;27498;-74
2022/12/17 14:07:30;;;;;;;5.70;4.55;;;-0.90;99.90;;;;;;476743;247;27509;-74
2022/12/17 14:09:31;;;;;;;4.55;4.12;;;-0.90;99.90;;;;;;473905;246;28018;-73
2022/12/17 14:13:37;;;;;;;7.18;4.37;;;-1.00;99.90;;;;;;468055;247;27898;-73
2022/12/17 14:15:38;;;;;;;8.65;5.75;;;-1.00;99.90;;;;;;473062;241;27513;-73
2022/12/17 14:17:39;;;;;;;7.90;5.25;;;-1.00;99.90;;;;;;484656;245;27445;-73
2022/12/17 14:19:40;;;;;;;8.23;5.72;;;-0.90;99.90;;;;;;485257;245;27480;-73
2022/12/17 14:21:42;;;;;;;7.97;5.87;;;-1.00;99.90;;;;;;484767;245;27429;-73
2022/12/17 14:23:43;;;;;;;8.77;5.85;;;-1.00;99.90;;;;;;485160;245;27622;-73
2022/12/17 14:25:44;;;;;;;7.37;5.18;;;-1.00;99.90;;;;;;484753;245;27436;-73
2022/12/17 14:27:45;;;;;;;6.28;4.75;;;-0.90;99.90;;;;;;485207;245;27985;-72
2022/12/17 14:29:47;;;;;;;6.00;5.32;;;-1.00;99.90;;;;;;484800;245;28494;-73
2022/12/17 14:31:48;;;;;;;12.82;5.40;;;-1.00;99.90;;;;;;485222;245;29154;-72
2022/12/17 14:33:49;;;;;;;7.20;5.15;;;-1.10;99.90;;;;;;484632;245;27515;-74
2022/12/17 14:35:50;;;;;;;6.50;5.22;;;-1.10;99.90;;;;;;478553;247;27771;-72
2022/12/17 14:37:52;;;;;;;7.95;4.93;;;-1.20;99.90;;;;;;477824;244;27626;-73
2022/12/17 14:39:53;;;;;;;5.85;4.55;;;-1.10;99.90;;;;;;468562;247;28054;-74
2022/12/17 14:44:14;;;;;;;7.82;5.65;;;-1.30;99.90;;;;;;476525;249;27535;-73
2022/12/17 14:46:21;;;;;;;10.05;5.50;;;-1.40;99.90;;;;;;476339;249;27534;-73
2022/12/17 14:48:59;;;;;;;5.45;4.53;;;-1.50;99.90;;;;;;471560;249;29133;-73
2022/12/17 14:50:24;;;;;;;7.97;5.20;;;-1.60;99.90;;;;;;475115;243;28093;-73
2022/12/17 14:52:25;;;;;;;7.40;5.05;;;-1.70;99.90;;;;;;466499;250;27570;-73
2022/12/17 14:54:27;;;;;;;9.60;5.85;;;-1.80;99.90;;;;;;477784;245;27602;-73
2022/12/17 14:56:27;;;;;;;6.95;5.00;;;-1.80;99.90;;;;;;475692;238;27562;-73
2022/12/17 14:58:28;;;;;;;7.40;4.90;;;-1.80;99.90;;;;;;473415;244;27482;-71
2022/12/17 15:00:30;;;;;;;7.03;4.70;;;-1.90;99.90;;;;;;489226;243;27178;-70
2022/12/17 15:02:35;;;;;;;6.70;5.30;;;-1.90;99.90;;;;;;483178;242;27160;-70
2022/12/17 15:04:32;;;;;;;9.38;6.00;;;-1.90;99.90;;;;;;489759;242;27270;-71
2022/12/17 15:06:33;;;;;;;7.00;5.20;;;-1.90;99.90;;;;;;488968;238;27631;-70
2022/12/17 15:08:35;;;;;;;7.25;5.25;;;-1.90;99.90;;;;;;487571;238;28896;-71
2022/12/17 15:10:36;;;;;;;8.70;5.87;;;-2.00;99.90;;;;;;488220;240;27760;-71
2022/12/17 15:12:37;;;;;;;7.10;5.30;;;-2.00;99.90;;;;;;488187;240;27148;-70
2022/12/17 15:14:38;;;;;;;9.40;5.37;;;-2.10;99.90;;;;;;488078;240;27520;-71
2022/12/17 15:16:40;;;;;;;7.20;5.70;;;-2.00;99.90;;;;;;489227;240;27347;-70
2022/12/17 15:18:41;;;;;;;8.75;6.43;;;-2.00;99.90;;;;;;480940;247;27343;-70
2022/12/17 15:20:42;;;;;;;8.40;5.55;;;-2.20;99.90;;;;;;489884;241;27049;-70
2022/12/17 15:22:44;;;;;;;9.38;6.32;;;-2.20;99.90;;;;;;487512;241;27645;-73
2022/12/17 15:24:45;;;;;;;12.18;6.53;;;-2.10;99.90;;;;;;487999;241;29215;-73
2022/12/17 15:26:46;;;;;;;9.10;5.68;;;-2.10;99.90;;;;;;487463;241;27183;-73
2022/12/17 15:28:47;;;;;;;8.10;6.60;;;-2.20;99.90;;;;;;487814;241;27028;-73
2022/12/17 15:30:49;;;;;;;12.85;7.72;;;-2.40;99.90;;;;;;487974;241;27045;-75
2022/12/17 15:32:50;;;;;;;11.52;7.20;;;-2.40;99.90;;;;;;487847;241;27548;-73
2022/12/17 15:34:51;;;;;;;14.18;8.75;;;-2.30;99.90;;;;;;487924;241;27649;-73
2022/12/17 15:36:52;;;;;;;12.40;9.60;;;-2.20;99.90;;;;;;487781;241;27271;-73
2022/12/17 15:38:54;;;;;;;12.77;9.70;;;-2.30;99.90;;;;;;487892;241;27718;-73
2022/12/17 15:40:55;;;;;;;15.52;10.00;;;-2.40;99.90;;;;;;487910;241;28755;-73
2022/12/17 15:43:11;;;;;;;23.40;13.60;;;-2.40;99.90;;;;;;488382;241;27293;-73
2022/12/17 15:45:12;;;;;;;16.08;11.23;;;-2.40;99.90;;;;;;487759;241;28688;-74
2022/12/17 15:47:14;;;;;;;18.45;11.50;;;-2.30;99.90;;;;;;487286;241;28716;-73
2022/12/17 15:49:15;;;;;;;18.65;11.43;;;-2.50;99.90;;;;;;487984;241;27268;-73
2022/12/17 15:51:18;;;;;;;17.48;10.88;;;-2.50;99.90;;;;;;488184;241;27159;-73
2022/12/17 15:53:18;;;;;;;16.42;10.38;;;-2.60;99.90;;;;;;488013;241;27131;-72
2022/12/17 15:55:19;;;;;;;14.65;9.77;;;-2.70;99.90;;;;;;487712;241;27075;-73
2022/12/17 15:57:20;;;;;;;15.55;10.13;;;-2.70;99.90;;;;;;488063;241;27227;-73
2022/12/17 15:59:21;;;;;;;14.20;9.45;;;-2.70;99.90;;;;;;488338;241;27641;-73
2022/12/17 16:01:23;;;;;;;11.43;8.93;;;-2.80;99.90;;;;;;487815;241;27537;-74
2022/12/17 16:03:24;;;;;;;13.75;8.20;;;-2.80;99.90;;;;;;487907;240;27733;-73
2022/12/17 16:05:25;;;;;;;14.15;8.48;;;-2.80;99.90;;;;;;488055;238;27733;-73
2022/12/17 16:07:28;;;;;;;12.00;7.18;;;;;;;;;;487859;241;27091;-73
2022/12/17 16:09:29;;;;;;;12.13;8.23;;;-3.00;99.90;;;;;;488031;241;27142;-73
2022/12/17 16:11:31;;;;;;;10.52;7.05;;;;;;;;;;487355;241;27232;-74
2022/12/17 16:13:34;;;;;;;10.57;7.18;;;;;;;;;;487756;241;26612;-73
2022/12/17 16:15:37;;;;;;;11.70;6.95;;;;;;;;;;487435;241;26716;-73
2022/12/17 16:17:39;;;;;;;12.30;7.80;;;;;;;;;;488242;241;26625;-72
2022/12/17 16:19:40;;;;;;;11.50;7.55;;;-3.10;99.90;;;;;;487834;241;27216;-73
2022/12/17 16:21:41;;;;;;;12.18;7.85;;;-3.10;99.90;;;;;;487846;241;27133;-74
2022/12/17 16:23:44;;;;;;;12.18;8.18;;;;;;;;;;487601;241;27055;-72
2022/12/17 16:25:45;;;;;;;12.52;8.07;;;-3.20;99.90;;;;;;487735;241;26740;-72
2022/12/17 16:27:46;;;;;;;13.65;8.60;;;-3.30;99.90;;;;;;488503;241;26949;-72
2022/12/17 16:29:48;;;;;;;10.13;7.03;;;-3.30;99.90;;;;;;488754;241;27494;-72
2022/12/17 16:31:50;;;;;;;14.63;8.25;;;;;;;;;;488359;241;27058;-73
2022/12/17 16:33:53;;;;;;;12.95;8.70;;;;;;;;;;488055;241;26842;-72
2022/12/17 16:35:54;;;;;;;15.38;9.48;;;-3.40;99.90;;;;;;487140;241;28224;-71
2022/12/17 16:37:55;;;;;;;18.50;10.20;;;-3.40;99.90;;;;;;489374;241;26928;-70
2022/12/17 16:39:58;;;;;;;15.15;9.00;;;;;;;;;;490827;242;27517;-73
2022/12/17 16:41:59;;;;;;;14.55;9.43;;;-3.60;99.90;;;;;;490727;242;26676;-72
2022/12/17 16:44:01;;;;;;;15.73;9.30;;;;;;;;;;490786;242;27416;-73
2022/12/17 16:46:04;;;;;;;14.40;7.97;;;;;;;;;;490809;242;26732;-72
2022/12/17 16:48:06;;;;;;;10.15;7.75;;;;;;;;;;490600;242;26494;-74
2022/12/17 16:50:08;;;;;;;10.23;7.35;;;-3.80;99.90;;;;;;490719;242;27396;-73
2022/12/17 16:52:09;;;;;;;9.35;7.10;;;-3.90;99.90;;;;;;490690;242;27456;-73
2022/12/17 16:54:10;;;;;;;9.70;6.50;;;-3.90;99.90;;;;;;490591;242;28686;-72
2022/12/17 16:56:11;;;;;;;11.05;7.18;;;-3.90;99.90;;;;;;490766;242;27369;-72
2022/12/17 16:58:13;;;;;;;10.30;7.10;;;-3.80;99.90;;;;;;490706;242;27407;-72
2022/12/17 17:00:15;;;;;;;9.18;7.25;;;;;;;;;;490561;242;27416;-72
2022/12/17 17:02:16;;;;;;;9.93;6.40;;;-3.90;99.90;;;;;;490741;242;29168;-72
2022/12/17 17:04:17;;;;;;;11.10;6.87;;;-3.90;99.90;;;;;;490739;241;27984;-72
2022/12/17 17:06:19;;;;;;;9.23;6.43;;;-3.90;99.90;;;;;;490631;242;27495;-72
2022/12/17 17:08:20;;;;;;;7.65;5.78;;;-4.00;99.90;;;;;;490761;242;27461;-72
2022/12/17 17:10:21;;;;;;;11.52;6.18;;;-4.10;99.90;;;;;;490785;242;27479;-72
2022/12/17 17:12:24;;;;;;;7.57;6.00;;;-4.10;99.90;;;;;;490631;242;27421;-72
2022/12/17 17:14:24;;;;;;;11.00;5.60;;;-4.20;99.90;;;;;;490719;242;28241;-72
2022/12/17 17:16:25;;;;;;;6.85;5.20;;;-4.20;99.90;;;;;;490783;242;27525;-71
2022/12/17 17:18:28;;;;;;;7.95;6.50;;;-4.30;99.90;;;;;;490683;242;27563;-72
2022/12/17 17:20:30;;;;;;;8.05;5.55;;;-4.30;99.90;;;;;;490699;242;27324;-72
2022/12/17 17:22:30;;;;;;;7.97;6.00;;;-4.30;99.90;;;;;;490475;242;27338;-73
2022/12/17 17:24:31;;;;;;;8.70;6.18;;;-4.30;99.90;;;;;;483759;245;27976;-73
2022/12/17 17:26:33;;;;;;;5.57;5.00;;;-4.30;99.90;;;;;;490518;242;28999;-72
2022/12/17 17:28:34;;;;;;;8.38;5.87;;;-4.30;99.90;;;;;;483899;245;28529;-72
2022/12/17 17:30:35;;;;;;;9.90;6.53;;;-4.30;99.90;;;;;;490482;242;27365;-72
2022/12/17 17:32:38;;;;;;;7.78;5.55;;;;;;;;;;483923;245;27462;-72
2022/12/17 17:34:39;;;;;;;8.90;6.62;;;-4.40;99.90;;;;;;490571;242;26784;-72
2022/12/17 17:36:41;;;;;;;14.32;7.10;;;-4.40;99.90;;;;;;483793;245;27898;-73
2022/12/17 17:38:42;;;;;;;7.82;6.12;;;-4.50;99.90;;;;;;490576;242;27377;-73
2022/12/17 17:40:43;;;;;;;9.65;6.62;;;-4.50;99.90;;;;;;483916;245;27448;-73
2022/12/17 17:42:44;;;;;;;9.18;6.65;;;-4.50;99.90;;;;;;488358;240;27612;-73
2022/12/17 17:44:47;;;;;;;7.93;6.20;;;-4.50;99.90;;;;;;487237;238;27521;-73
2022/12/17 17:46:47;;;;;;;9.07;6.72;;;-4.60;99.90;;;;;;488188;240;27579;-73
2022/12/17 17:48:48;;;;;;;8.50;7.18;;;-4.60;99.90;;;;;;488576;241;27464;-72
2022/12/17 17:50:49;;;;;;;8.70;6.47;;;-4.70;99.90;;;;;;487178;241;27643;-72
2022/12/17 17:52:51;;;;;;;7.85;5.65;;;-4.70;99.90;;;;;;487656;241;28005;-73
2022/12/17 17:54:53;;;;;;;7.57;6.40;;;-4.70;99.90;;;;;;487452;241;28104;-74
2022/12/17 17:56:53;;;;;;;9.63;6.05;;;-4.80;99.90;;;;;;487974;241;27496;-73
2022/12/17 17:58:55;;;;;;;10.48;6.40;;;-4.80;99.90;;;;;;487855;241;28968;-73
2022/12/17 18:00:56;;;;;;;8.52;6.18;;;-4.80;99.90;;;;;;487862;241;28521;-73
2022/12/17 18:02:57;;;;;;;9.93;6.72;;;-4.80;99.90;;;;;;487345;241;27568;-72
2022/12/17 18:04:58;;;;;;;9.65;6.43;;;-4.80;99.90;;;;;;487622;241;27967;-73
2022/12/17 18:07:00;;;;;;;11.12;7.35;;;-4.80;99.90;;;;;;487581;241;27615;-73
2022/12/17 18:09:01;;;;;;;10.95;6.85;;;-4.80;99.90;;;;;;487910;241;28124;-73
2022/12/17 18:11:02;;;;;;;10.85;8.30;;;-4.90;99.90;;;;;;487594;241;28194;-73
2022/12/17 18:15:23;;;;;;;9.88;7.20;;;-5.00;99.90;;;;;;487632;241;27655;-73
2022/12/17 18:17:24;;;;;;;13.00;8.43;;;-5.00;99.90;;;;;;487607;241;27552;-73
2022/12/17 18:19:25;;;;;;;12.82;7.75;;;-5.00;99.90;;;;;;487443;241;27509;-72
2022/12/17 18:21:27;;;;;;;10.32;7.80;;;-5.00;99.90;;;;;;487244;241;27554;-72
2022/12/17 18:23:28;;;;;;;13.00;8.30;;;-5.00;99.90;;;;;;487866;241;27918;-73
2022/12/17 18:25:29;;;;;;;9.90;8.00;;;-5.00;99.90;;;;;;487591;241;27499;-73
2022/12/17 18:27:31;;;;;;;12.80;8.43;;;-5.00;99.90;;;;;;488068;241;27632;-72
2022/12/17 18:29:33;;;;;;;10.43;7.55;;;-4.90;99.90;;;;;;487987;241;28187;-73
2022/12/17 18:31:33;;;;;;;10.05;7.35;;;-4.90;99.90;;;;;;487874;241;28028;-73
2022/12/17 18:33:34;;;;;;;9.65;7.50;;;-4.90;99.90;;;;;;487977;241;27507;-74
2022/12/17 18:35:35;;;;;;;10.98;7.40;;;-4.90;99.90;;;;;;487400;241;27531;-72
2022/12/17 18:37:37;;;;;;;13.40;8.88;;;-4.90;99.90;;;;;;488722;241;27575;-73
2022/12/17 18:39:38;;;;;;;13.40;8.48;;;-4.90;99.90;;;;;;490638;242;27892;-73
2022/12/17 18:43:59;;;;;;;11.93;8.68;;;-4.90;99.90;;;;;;490702;242;27418;-72
2022/12/17 18:46:00;;;;;;;14.15;9.20;;;-4.90;99.90;;;;;;490624;242;27404;-72
2022/12/17 18:48:04;;;;;;;12.88;8.90;;;-4.90;99.90;;;;;;490665;242;27443;-73
2022/12/17 18:50:06;;;;;;;12.43;8.65;;;-4.90;99.90;;;;;;490519;242;27505;-73
2022/12/17 18:52:07;;;;;;;14.30;9.23;;;-4.90;99.90;;;;;;490492;242;29003;-73
2022/12/17 18:54:09;;;;;;;14.98;9.32;;;-4.90;99.90;;;;;;490248;242;27506;-72
2022/12/17 18:56:09;;;;;;;15.70;9.63;;;-4.90;99.90;;;;;;490577;242;27430;-73
2022/12/17 18:58:11;;;;;;;16.87;8.57;;;-4.90;99.90;;;;;;490085;242;27511;-72
2022/12/17 19:00:12;;;;;;;16.12;9.20;;;-4.90;99.90;;;;;;490635;241;27511;-73
2022/12/17 19:02:13;;;;;;;12.95;8.77;;;-4.90;99.90;;;;;;490275;242;27478;-72
2022/12/17 19:04:14;;;;;;;15.38;10.38;;;-4.90;99.90;;;;;;490633;242;27458;-73
2022/12/17 19:06:16;;;;;;;11.98;8.50;;;-4.90;99.90;;;;;;490659;242;27898;-73
2022/12/17 19:08:17;;;;;;;15.27;9.05;;;-5.00;99.90;;;;;;490249;242;27475;-73
2022/12/17 19:10:18;;;;;;;15.38;9.32;;;-5.00;99.90;;;;;;491972;238;27494;-73
2022/12/17 19:12:20;;;;;;;13.82;9.05;;;-5.00;99.90;;;;;;490964;238;27463;-72
2022/12/17 19:14:24;;;;;;;15.45;9.93;;;-5.00;99.90;;;;;;486811;242;27491;-73
2022/12/17 19:16:25;;;;;;;13.35;7.65;;;-5.00;99.90;;;;;;479681;238;27539;-73
2022/12/17 19:18:26;;;;;;;14.85;9.25;;;-5.10;99.90;;;;;;475348;247;27515;-72
2022/12/17 19:20:27;;;;;;;14.35;8.70;;;-5.10;99.90;;;;;;475799;247;27520;-72
2022/12/17 19:22:29;;;;;;;14.00;8.32;;;-5.10;99.90;;;;;;473467;248;27894;-73
2022/12/17 19:24:30;;;;;;;15.60;9.63;;;-5.10;99.90;;;;;;477303;246;28607;-73
2022/12/17 19:26:31;;;;;;;14.73;8.98;;;-5.10;99.90;;;;;;479136;240;28089;-73
2022/12/17 19:28:32;;;;;;;16.60;9.60;;;-5.10;99.90;;;;;;499859;235;27483;-72
2022/12/17 19:30:34;;;;;;;16.17;10.25;;;-5.10;99.90;;;;;;484602;239;27568;-73
2022/12/17 19:32:35;;;;;;;22.73;10.77;;;-5.00;99.90;;;;;;499271;235;27472;-73
2022/12/17 19:34:36;;;;;;;15.70;9.80;;;-5.00;99.90;;;;;;482496;242;27522;-73
2022/12/17 19:36:38;;;;;;;18.27;10.48;;;-5.10;99.90;;;;;;490323;235;27542;-73
2022/12/17 19:38:39;;;;;;;17.20;9.77;;;-5.10;99.90;;;;;;486331;240;28096;-72
2022/12/17 19:40:40;;;;;;;14.43;9.95;;;-5.10;99.90;;;;;;497876;234;27445;-73
2022/12/17 19:42:41;;;;;;;18.80;11.93;;;-5.10;99.90;;;;;;497671;234;27491;-73
2022/12/17 19:44:43;;;;;;;14.87;9.80;;;-5.10;99.90;;;;;;487673;240;27472;-73
2022/12/17 19:46:44;;;;;;;17.87;10.70;;;-5.10;99.90;;;;;;472304;239;27610;-73
2022/12/17 19:48:45;;;;;;;19.12;11.27;;;-5.10;99.90;;;;;;465133;250;27951;-73
2022/12/17 19:50:46;;;;;;;18.83;10.95;;;-5.10;99.90;;;;;;464609;252;29101;-73
2022/12/17 19:52:48;;;;;;;18.48;11.02;;;-5.10;99.90;;;;;;465173;253;27603;-72
2022/12/17 19:54:49;;;;;;;14.52;9.77;;;-5.10;99.90;;;;;;474259;245;27518;-73
2022/12/17 19:56:50;;;;;;;15.68;9.95;;;-5.20;99.90;;;;;;471523;242;27615;-73
2022/12/17 19:58:51;;;;;;;18.35;10.02;;;-5.20;99.90;;;;;;478052;244;27562;-73
2022/12/17 20:00:53;;;;;;;20.48;11.45;;;-5.20;99.90;;;;;;477972;244;27518;-73
2022/12/17 20:02:54;;;;;;;15.80;11.00;;;-5.30;99.90;;;;;;477652;244;28045;-72
2022/12/17 20:04:55;;;;;;;19.02;11.02;;;-5.30;99.90;;;;;;478066;244;28052;-73
2022/12/17 20:06:57;;;;;;;22.52;11.70;;;-5.30;99.90;;;;;;477765;244;27615;-73
2022/12/17 20:08:58;;;;;;;18.52;11.38;;;-5.30;99.90;;;;;;476898;244;27577;-73
2022/12/17 20:10:59;;;;;;;19.25;11.52;;;-5.30;99.90;;;;;;477026;244;29103;-72
2022/12/17 20:13:00;;;;;;;23.48;11.07;;;-5.40;99.90;;;;;;478544;244;27633;-74
2022/12/17 20:15:01;;;;;;;16.23;10.10;;;-5.50;99.90;;;;;;477988;244;27980;-73
2022/12/17 20:17:03;;;;;;;17.80;10.27;;;-5.60;99.90;;;;;;487317;237;28042;-72
2022/12/17 20:19:04;;;;;;;19.70;10.98;;;-5.60;99.90;;;;;;488693;240;27480;-73
2022/12/17 20:21:05;;;;;;;16.30;10.68;;;-5.70;99.90;;;;;;488728;240;27504;-72
2022/12/17 20:23:07;;;;;;;18.20;9.98;;;-5.70;99.90;;;;;;488415;240;27524;-73
2022/12/17 20:25:10;;;;;;;15.30;10.38;;;-5.70;99.90;;;;;;495267;237;28140;-73
2022/12/17 20:27:09;;;;;;;23.27;11.07;;;-5.70;99.90;;;;;;479797;239;28861;-73
2022/12/17 20:29:10;;;;;;;16.58;10.15;;;-5.70;99.90;;;;;;479173;244;27518;-73
2022/12/17 20:31:12;;;;;;;19.73;11.20;;;-5.80;99.90;;;;;;478427;244;27592;-72
2022/12/17 20:33:13;;;;;;;17.50;9.93;;;-5.90;99.90;;;;;;479753;244;28726;-73
2022/12/17 20:35:14;;;;;;;20.67;10.27;;;-5.90;99.90;;;;;;479871;244;27729;-73
2022/12/17 20:37:15;;;;;;;15.35;9.90;;;-5.90;99.90;;;;;;479523;244;28568;-73
2022/12/17 20:39:17;;;;;;;17.20;11.18;;;-5.90;99.90;;;;;;478969;244;27986;-72
2022/12/17 20:41:18;;;;;;;17.23;9.75;;;-5.90;99.90;;;;;;478320;244;27610;-73
2022/12/17 20:43:19;;;;;;;15.85;10.07;;;-5.90;99.90;;;;;;479089;244;27626;-73
2022/12/17 20:47:32;;;;;;;18.50;10.00;;;-6.00;99.90;;;;;;467086;249;28687;-73
2022/12/17 20:49:33;;;;;;;16.60;9.35;;;-6.10;99.90;;;;;;459818;258;27612;-72
2022/12/17 20:51:35;;;;;;;14.45;8.60;;;-6.30;99.90;;;;;;474658;246;27577;-73
2022/12/17 20:53:36;;;;;;;18.05;9.75;;;-6.40;99.90;;;;;;474803;248;27974;-73
2022/12/17 20:55:37;;;;;;;13.57;9.43;;;-6.40;99.90;;;;;;474197;248;28069;-73
2022/12/17 20:57:38;;;;;;;14.02;9.23;;;-6.30;99.90;;;;;;475492;244;27388;-73
2022/12/17 20:59:40;;;;;;;14.50;9.20;;;-6.30;99.90;;;;;;474761;245;27650;-73
2022/12/17 21:01:41;;;;;;;15.35;9.07;;;-6.20;99.90;;;;;;475093;246;27555;-73
2022/12/17 21:03:42;;;;;;;13.82;8.88;;;-6.20;99.90;;;;;;475195;245;27919;-73
2022/12/17 21:05:44;;;;;;;11.80;7.90;;;-6.20;99.90;;;;;;476498;236;27903;-73
2022/12/17 21:07:45;;;;;;;16.90;9.48;;;-6.20;99.90;;;;;;480417;243;27652;-73
2022/12/17 21:09:46;;;;;;;14.52;9.48;;;-6.10;99.90;;;;;;470611;245;27602;-73
2022/12/17 21:11:47;;;;;;;14.38;9.63;;;-6.10;99.90;;;;;;481541;239;27537;-73
2022/12/17 21:13:49;;;;;;;18.00;9.90;;;-6.20;99.90;;;;;;477415;245;28662;-73
2022/12/17 21:15:50;;;;;;;13.32;9.38;;;-6.10;99.90;;;;;;469654;248;28217;-73
2022/12/17 21:17:54;;;;;;;17.40;9.82;;;-6.00;99.90;;;;;;476681;244;27389;-73
2022/12/17 21:19:55;;;;;;;16.65;9.70;;;-6.00;99.90;;;;;;475514;242;27617;-73
2022/12/17 21:21:56;;;;;;;17.73;9.98;;;-6.10;99.90;;;;;;476367;242;27964;-73
2022/12/17 21:23:57;;;;;;;14.80;9.70;;;-6.10;99.90;;;;;;476576;242;28759;-73
2022/12/17 21:25:59;;;;;;;13.82;8.77;;;-6.20;99.90;;;;;;476316;242;27506;-72
2022/12/17 21:28:00;;;;;;;14.38;9.38;;;-6.20;99.90;;;;;;478261;244;27549;-72
2022/12/17 21:30:01;;;;;;;17.35;10.93;;;-6.20;99.90;;;;;;479185;242;27553;-73
2022/12/17 21:32:02;;;;;;;16.48;10.05;;;-6.30;99.90;;;;;;477404;246;27530;-73
2022/12/17 21:34:04;;;;;;;21.12;10.20;;;-6.30;99.90;;;;;;478366;245;27420;-73
2022/12/17 21:36:05;;;;;;;18.02;9.82;;;-6.30;99.90;;;;;;479390;247;27883;-73
2022/12/17 21:38:06;;;;;;;19.00;9.50;;;-6.30;99.90;;;;;;481338;247;27870;-73
2022/12/17 21:40:07;;;;;;;15.18;9.52;;;-6.40;99.90;;;;;;481300;247;27495;-73
2022/12/17 21:44:29;;;;;;;16.98;8.85;;;-6.50;99.90;;;;;;480774;246;27952;-73
2022/12/17 21:46:30;;;;;;;18.35;9.77;;;-6.50;99.90;;;;;;479115;247;28507;-73
2022/12/17 21:48:31;;;;;;;17.17;10.32;;;-6.60;99.90;;;;;;476995;247;27450;-73
2022/12/17 21:50:32;;;;;;;19.08;10.68;;;-6.60;99.90;;;;;;480202;240;27908;-73
2022/12/17 21:52:34;;;;;;;15.70;8.95;;;-6.60;99.90;;;;;;475198;250;27534;-73
2022/12/17 21:54:35;;;;;;;16.02;8.98;;;-6.70;99.90;;;;;;483354;245;28598;-73
2022/12/17 21:56:36;;;;;;;16.45;9.45;;;-6.90;99.90;;;;;;483314;246;27570;-73
2022/12/17 21:58:38;;;;;;;16.52;10.10;;;-6.80;99.90;;;;;;475859;249;28567;-73
2022/12/17 22:00:39;;;;;;;14.38;9.02;;;-6.90;99.90;;;;;;488248;239;29005;-73
2022/12/17 22:02:40;;;;;;;15.00;8.90;;;-6.90;99.90;;;;;;474359;249;27546;-72
2022/12/17 22:04:41;;;;;;;17.40;10.10;;;-6.80;99.90;;;;;;476057;248;29043;-73
2022/12/17 22:06:43;;;;;;;19.58;10.63;;;-6.80;99.90;;;;;;486924;239;28070;-73
2022/12/17 22:08:44;;;;;;;15.23;8.93;;;-6.80;99.90;;;;;;478559;248;27545;-73
2022/12/17 22:10:45;;;;;;;15.75;9.70;;;-6.90;99.90;;;;;;480352;247;27496;-73
2022/12/17 22:15:06;;;;;;;16.35;9.80;;;-7.00;99.90;;;;;;480328;247;27579;-72
2022/12/17 22:17:07;;;;;;;17.23;10.18;;;-7.10;99.90;;;;;;480293;247;27548;-73
2022/12/17 22:19:08;;;;;;;17.05;9.70;;;-7.10;99.90;;;;;;480357;247;28144;-73
2022/12/17 22:21:09;;;;;;;15.38;9.45;;;-7.00;99.90;;;;;;480370;247;28029;-73
2022/12/17 22:23:11;;;;;;;16.48;10.18;;;-7.00;99.90;;;;;;480299;247;27660;-73
2022/12/17 22:25:12;;;;;;;16.70;10.68;;;-7.10;99.90;;;;;;480371;247;27647;-73
2022/12/17 22:27:13;;;;;;;16.00;9.23;;;-7.00;99.90;;;;;;479971;245;27512;-73
2022/12/17 22:33:35;;;;;;;21.08;11.60;;;-7.10;99.90;;;;;;486581;244;28556;-73
2022/12/17 22:35:36;;;;;;;17.80;11.10;;;-7.00;99.90;;;;;;478892;248;27469;-72
2022/12/17 22:37:37;;;;;;;17.42;10.65;;;-7.00;99.90;;;;;;478890;248;27492;-72
2022/12/17 22:39:39;;;;;;;16.73;11.25;;;-7.00;99.90;;;;;;478819;248;28624;-73
2022/12/17 22:44:00;;;;;;;19.65;11.68;;;-7.00;99.90;;;;;;478851;248;27539;-72
2022/12/17 22:46:01;;;;;;;23.33;11.90;;;-7.00;99.90;;;;;;478856;248;27497;-73
2022/12/17 22:48:02;;;;;;;18.50;11.27;;;-7.00;99.90;;;;;;478890;248;27417;-72
2022/12/17 22:50:03;;;;;;;22.80;12.48;;;-7.00;99.90;;;;;;478832;248;28046;-72
2022/12/17 22:52:05;;;;;;;26.00;14.05;;;-7.00;99.90;;;;;;478913;248;27461;-72
2022/12/17 22:54:06;;;;;;;16.17;10.63;;;-6.90;99.90;;;;;;478926;248;27484;-72
2022/12/17 22:56:08;;;;;;;21.55;12.95;;;-6.90;99.90;;;;;;478856;248;29003;-72
2022/12/17 22:58:10;;;;;;;25.73;13.10;;;-7.00;99.90;;;;;;478914;248;27516;-73
2022/12/17 23:00:11;;;;;;;27.02;14.05;;;-7.00;99.90;;;;;;478833;248;27551;-72
2022/12/17 23:02:12;;;;;;;25.25;14.38;;;-7.00;99.90;;;;;;478923;248;27667;-72
2022/12/17 23:04:14;;;;;;;21.50;12.73;;;-7.10;99.90;;;;;;478922;248;27528;-72
2022/12/17 23:06:15;;;;;;;21.45;12.90;;;-7.10;99.90;;;;;;478821;248;27509;-73
2022/12/17 23:08:16;;;;;;;23.33;12.93;;;-7.20;99.90;;;;;;478882;248;27919;-72
2022/12/17 23:10:17;;;;;;;21.27;11.93;;;-7.20;99.90;;;;;;478901;248;27996;-72
2022/12/17 23:14:38;;;;;;;21.00;12.02;;;-7.20;99.90;;;;;;478888;248;27477;-72
2022/12/17 23:16:39;;;;;;;19.40;11.73;;;-7.20;99.90;;;;;;478848;248;27473;-73
2022/12/17 23:18:40;;;;;;;20.00;12.07;;;-7.20;99.90;;;;;;478879;248;27958;-73
2022/12/17 23:20:41;;;;;;;22.87;11.52;;;-7.20;99.90;;;;;;478897;248;27457;-72
2022/12/17 23:22:43;;;;;;;20.65;11.95;;;-7.20;99.90;;;;;;478839;248;28501;-72
2022/12/17 23:24:44;;;;;;;20.17;11.95;;;-7.20;99.90;;;;;;478880;248;27456;-73
2022/12/17 23:26:48;;;;;;;28.67;12.13;;;-7.20;99.90;;;;;;478799;244;27453;-72
2022/12/17 23:28:49;;;;;;;19.20;11.30;;;-7.20;99.90;;;;;;478884;248;27457;-72
2022/12/17 23:30:51;;;;;;;24.17;11.82;;;-7.20;99.90;;;;;;478831;248;27428;-72
2022/12/17 23:32:52;;;;;;;20.00;10.88;;;-7.30;99.90;;;;;;478843;248;27543;-72
2022/12/17 23:34:53;;;;;;;20.17;11.30;;;-7.50;99.90;;;;;;478882;248;27867;-73
2022/12/17 23:36:54;;;;;;;24.23;11.90;;;-7.50;99.90;;;;;;479395;242;27607;-73
2022/12/17 23:38:56;;;;;;;20.40;12.35;;;-7.50;99.90;;;;;;479704;247;27546;-72
2022/12/17 23:40:57;;;;;;;19.50;10.57;;;-7.50;99.90;;;;;;475080;250;27424;-72
2022/12/17 23:42:59;;;;;;;20.58;11.35;;;-7.50;99.90;;;;;;475042;250;27550;-73
2022/12/17 23:44:59;;;;;;;20.50;11.65;;;-7.50;99.90;;;;;;475101;250;27412;-72
2022/12/17 23:47:01;;;;;;;18.75;10.75;;;-7.40;99.90;;;;;;475089;250;28024;-73
2022/12/17 23:49:02;;;;;;;22.45;13.02;;;-7.40;99.90;;;;;;475052;250;27938;-73
2022/12/17 23:51:03;;;;;;;27.48;14.60;;;-7.50;99.90;;;;;;475083;250;27460;-73
2022/12/17 23:53:04;;;;;;;26.42;15.45;;;-7.50;99.90;;;;;;475077;250;27525;-73
2022/12/17 23:55:06;;;;;;;25.67;14.07;;;-7.50;99.90;;;;;;475052;250;27424;-72
2022/12/17 23:57:07;;;;;;;30.73;16.05;;;-7.60;99.90;;;;;;474986;250;27452;-72
2022/12/17 23:59:08;;;;;;;32.42;16.58;;;-7.50;99.90;;;;;;475035;250;28023;-73
